Time;durP1;ratioP1;P1;durP2;ratioP2;P2;SDS_P1;SDS_P2;PMS_P1;PMS_P2;Temp;Humidity;BMP_temperature;BMP_pressure;BME280_temperature;BME280_humidity;BME280_pressure;Samples;Min_cycle;Max_cycle;Signal;HPM_P1;HPM_P2
2021/10/28 00:12:13;;;;;;;6.40;5.07;;;;;;;;;;4990814;28;20254;-64
2021/10/28 00:14:44;;;;;;;7.83;5.07;;;;;;;;;;4973673;28;20744;-64
2021/10/28 00:17:18;;;;;;;8.07;5.33;;;;;;;;;;4966751;28;20171;-64
2021/10/28 00:19:45;;;;;;;6.20;5.57;;;;;;;;;;4973515;28;20638;-64
2021/10/28 00:22:13;;;;;;;8.17;5.30;;;;;;;;;;4972925;28;20241;-64
2021/10/28 00:24:39;;;;;;;6.30;5.27;;;;;;;;;;4990285;28;20167;-65
2021/10/28 00:27:05;;;;;;;5.90;5.03;;;;;;;;;;4972060;28;20220;-64
2021/10/28 00:29:31;;;;;;;6.17;5.10;;;;;;;;;;4989088;28;20189;-64
2021/10/28 00:31:58;;;;;;;6.77;5.00;;;;;;;;;;4990397;28;20178;-64
2021/10/28 00:34:25;;;;;;;6.83;5.37;;;;;;;;;;4969369;28;20188;-64
2021/10/28 00:36:52;;;;;;;6.67;5.70;;;;;;;;;;4968590;28;20186;-64
2021/10/28 00:39:19;;;;;;;6.83;5.90;;;;;;;;;;4972353;28;20702;-64
2021/10/28 00:41:45;;;;;;;7.23;5.60;;;;;;;;;;4990847;28;20645;-64
2021/10/28 00:44:11;;;;;;;5.37;4.87;;;;;;;;;;4972172;28;20191;-64
2021/10/28 00:46:39;;;;;;;6.53;4.73;;;;;;;;;;4990065;28;20176;-64
2021/10/28 00:49:08;;;;;;;6.63;5.87;;;;;;;;;;4968087;28;20176;-64
2021/10/28 00:51:34;;;;;;;7.33;5.60;;;;;;;;;;4967958;28;20183;-64
2021/10/28 00:54:01;;;;;;;10.00;5.80;;;;;;;;;;4971839;28;20688;-64
2021/10/28 00:56:29;;;;;;;6.20;5.60;;;;;;;;;;4989746;28;20638;-64
2021/10/28 00:58:55;;;;;;;7.93;5.83;;;;;;;;;;4990065;28;20665;-64
2021/10/28 01:01:22;;;;;;;8.57;5.30;;;;;;;;;;4988735;28;20266;-63
2021/10/28 01:03:49;;;;;;;7.77;5.37;;;;;;;;;;4970050;28;20202;-63
2021/10/28 01:06:15;;;;;;;6.17;5.57;;;;;;;;;;4971292;28;20237;-63
2021/10/28 01:08:45;;;;;;;9.37;6.17;;;;;;;;;;4989351;28;20191;-64
2021/10/28 01:11:11;;;;;;;6.70;5.77;;;;;;;;;;4966560;28;20270;-64
2021/10/28 01:13:38;;;;;;;7.07;5.43;;;;;;;;;;4989207;28;20194;-64
2021/10/28 01:16:04;;;;;;;8.40;5.77;;;;;;;;;;4967590;28;20180;-64
2021/10/28 01:18:33;;;;;;;7.13;6.43;;;;;;;;;;4971706;28;20738;-64
2021/10/28 01:21:00;;;;;;;6.93;6.03;;;;;;;;;;4979289;28;20212;-64
2021/10/28 01:23:26;;;;;;;6.37;5.77;;;;;;;;;;4972820;28;20203;-64
2021/10/28 01:25:54;;;;;;;6.20;5.60;;;;;;;;;;4966609;28;20274;-64
2021/10/28 01:28:22;;;;;;;8.43;6.37;;;;;;;;;;4969397;28;20230;-64
2021/10/28 01:30:56;;;;;;;6.80;5.90;;;;;;;;;;4970775;28;20287;-64
2021/10/28 01:33:23;;;;;;;6.37;5.67;;;;;;;;;;4968510;28;20187;-64
2021/10/28 01:35:49;;;;;;;7.73;6.37;;;;;;;;;;4956081;28;20556;-64
2021/10/28 01:38:16;;;;;;;8.57;7.30;;;;;;;;;;4972290;28;20188;-64
2021/10/28 01:40:43;;;;;;;8.83;6.73;;;;;;;;;;4956730;28;20188;-64
2021/10/28 01:43:09;;;;;;;7.73;6.20;;;;;;;;;;4971946;28;20287;-64
2021/10/28 01:45:35;;;;;;;8.90;6.27;;;;;;;;;;4978499;28;20183;-64
2021/10/28 01:48:02;;;;;;;7.87;6.73;;;;;;;;;;4988568;28;20183;-63
2021/10/28 01:50:28;;;;;;;7.30;6.63;;;;;;;;;;4973708;28;20192;-63
2021/10/28 01:52:55;;;;;;;7.77;6.93;;;;;;;;;;4971425;28;20648;-63
2021/10/28 01:55:21;;;;;;;7.70;6.70;;;;;;;;;;4970424;28;20833;-63
2021/10/28 01:57:48;;;;;;;7.07;6.37;;;;;;;;;;4988270;28;20192;-63
2021/10/28 02:00:15;;;;;;;7.67;6.67;;;;;;;;;;4987330;28;20670;-63
2021/10/28 02:02:42;;;;;;;8.30;6.87;;;;;;;;;;4967947;28;20248;-63
2021/10/28 02:05:12;;;;;;;7.67;6.37;;;;;;;;;;4970362;28;20194;-63
2021/10/28 02:07:39;;;;;;;8.30;7.50;;;;;;;;;;4969660;28;20191;-64
2021/10/28 02:10:06;;;;;;;8.13;7.33;;;;;;;;;;4984330;28;20190;-64
2021/10/28 02:12:33;;;;;;;8.10;7.30;;;;;;;;;;4988454;28;20571;-63
2021/10/28 02:14:59;;;;;;;9.43;7.70;;;;;;;;;;4970533;28;20191;-63
2021/10/28 02:17:25;;;;;;;8.87;7.90;;;;;;;;;;4971201;28;20183;-64
2021/10/28 02:19:51;;;;;;;8.03;7.20;;;;;;;;;;4968303;28;20355;-63
2021/10/28 02:22:17;;;;;;;10.40;7.53;;;;;;;;;;4988083;28;20705;-63
2021/10/28 02:24:46;;;;;;;8.87;7.97;;;;;;;;;;4961373;28;20184;-63
2021/10/28 02:27:13;;;;;;;9.00;7.40;;;;;;;;;;4964687;28;20266;-63
2021/10/28 02:29:39;;;;;;;8.33;7.20;;;;;;;;;;4984277;28;20175;-63
2021/10/28 02:32:06;;;;;;;8.73;7.63;;;;;;;;;;4969928;28;20573;-63
2021/10/28 02:34:32;;;;;;;9.40;7.80;;;;;;;;;;4958405;28;20553;-63
2021/10/28 02:36:58;;;;;;;8.53;7.47;;;;;;;;;;4987898;28;20194;-64
2021/10/28 02:39:24;;;;;;;8.03;7.23;;;;;;;;;;4985414;28;20183;-64
2021/10/28 02:41:53;;;;;;;7.80;6.53;;;;;;;;;;4970290;28;20179;-63
2021/10/28 02:44:19;;;;;;;10.43;7.90;;;;;;;;;;4970038;28;20253;-64
2021/10/28 02:46:45;;;;;;;7.97;7.17;;;;;;;;;;4984356;28;20182;-64
2021/10/28 02:49:14;;;;;;;9.70;8.03;;;;;;;;;;4970632;28;20273;-64
2021/10/28 02:51:40;;;;;;;8.00;7.20;;;;;;;;;;4970363;28;20203;-64
2021/10/28 02:54:07;;;;;;;8.50;7.60;;;;;;;;;;4985105;28;20180;-64
2021/10/28 02:56:33;;;;;;;9.73;7.70;;;;;;;;;;4969587;28;20191;-64
2021/10/28 02:58:59;;;;;;;8.70;7.80;;;;;;;;;;4986203;28;20190;-64
2021/10/28 03:01:26;;;;;;;9.20;8.20;;;;;;;;;;4987508;28;20297;-64
2021/10/28 03:03:52;;;;;;;8.03;7.23;;;;;;;;;;4987190;28;20229;-64
2021/10/28 03:06:18;;;;;;;8.37;7.47;;;;;;;;;;4987089;28;20199;-64
2021/10/28 03:08:44;;;;;;;7.50;6.60;;;;;;;;;;4988302;28;20211;-64
2021/10/28 03:11:11;;;;;;;9.20;7.90;;;;;;;;;;4986551;28;20178;-64
2021/10/28 03:13:38;;;;;;;8.40;7.43;;;;;;;;;;4983376;28;20183;-64
2021/10/28 03:16:30;;;;;;;8.33;7.50;;;;;;;;;;4987958;28;20175;-64
2021/10/28 03:27:11;;;;;;;8.23;7.43;;;;;;;;;;4987711;28;20226;-64
2021/10/28 03:29:37;;;;;;;8.33;7.50;;;;;;;;;;4987268;28;20183;-64
2021/10/28 03:32:04;;;;;;;9.13;8.17;;;;;;;;;;4969983;28;20925;-64
2021/10/28 03:34:30;;;;;;;8.57;7.60;;;;;;;;;;4981546;28;20602;-64
2021/10/28 04:30:54;;;;;;;8.13;7.33;;;;;;;;;;4988565;28;20275;-64
2021/10/28 04:33:21;;;;;;;8.40;7.50;;;;;;;;;;4989439;28;20262;-64
2021/10/28 04:35:47;;;;;;;8.03;7.23;;;;;;;;;;4970724;28;20179;-64
2021/10/28 04:38:14;;;;;;;9.53;7.70;;;;;;;;;;4988392;28;20187;-64
2021/10/28 04:40:41;;;;;;;10.13;7.17;;;;;;;;;;4986755;28;20238;-64
2021/10/28 04:43:08;;;;;;;10.87;8.60;;;;;;;;;;4972916;28;20203;-64
2021/10/28 04:45:34;;;;;;;9.47;8.03;;;;;;;;;;4987261;28;20570;-64
2021/10/28 04:48:00;;;;;;;9.17;7.93;;;;;;;;;;4973191;28;20175;-64
2021/10/28 04:50:26;;;;;;;8.73;7.83;;;;;;;;;;4988706;28;20186;-63
2021/10/28 04:52:53;;;;;;;9.57;7.63;;;;;;;;;;4976505;28;20627;-64
2021/10/28 04:55:19;;;;;;;9.17;7.87;;;;;;;;;;4972299;28;20685;-64
2021/10/28 04:57:45;;;;;;;9.57;8.50;;;;;;;;;;4990620;28;20194;-64
2021/10/28 05:00:11;;;;;;;8.47;7.57;;;;;;;;;;4968611;28;20669;-64
2021/10/28 05:02:38;;;;;;;10.23;7.97;;;;;;;;;;4983206;28;20206;-64
2021/10/28 05:05:05;;;;;;;9.50;8.00;;;;;;;;;;4983012;28;20168;-64
2021/10/28 05:07:31;;;;;;;9.50;8.00;;;;;;;;;;4990727;28;20477;-64
2021/10/28 05:09:57;;;;;;;9.47;7.43;;;;;;;;;;4987041;28;20176;-64
2021/10/28 05:12:24;;;;;;;8.70;7.80;;;;;;;;;;4984545;28;20613;-64
2021/10/28 05:14:50;;;;;;;8.90;8.00;;;;;;;;;;4985926;28;20182;-64
2021/10/28 05:17:16;;;;;;;8.87;7.97;;;;;;;;;;4990812;28;20174;-63
2021/10/28 05:19:44;;;;;;;9.83;8.23;;;;;;;;;;4989406;28;20194;-64
2021/10/28 05:22:10;;;;;;;8.30;7.17;;;;;;;;;;4989929;28;20658;-64
2021/10/28 05:24:36;;;;;;;9.50;7.70;;;;;;;;;;4987987;28;20210;-63
2021/10/28 05:27:03;;;;;;;11.03;8.80;;;;;;;;;;4971614;28;20669;-64
2021/10/28 05:29:29;;;;;;;9.03;7.73;;;;;;;;;;4972321;28;20202;-64
2021/10/28 05:31:55;;;;;;;11.03;8.23;;;;;;;;;;4990257;28;20635;-63
2021/10/28 05:34:21;;;;;;;9.53;7.87;;;;;;;;;;4988420;28;20183;-64
2021/10/28 05:36:48;;;;;;;8.63;7.73;;;;;;;;;;4987546;28;20285;-63
2021/10/28 05:39:14;;;;;;;9.33;8.27;;;;;;;;;;4989907;28;20186;-63
2021/10/28 05:41:40;;;;;;;9.43;8.20;;;;;;;;;;4993870;28;20685;-64
2021/10/28 05:44:06;;;;;;;9.47;7.70;;;;;;;;;;4980205;28;20211;-64
2021/10/28 05:46:32;;;;;;;11.97;8.13;;;;;;;;;;4969468;28;20184;-64
2021/10/28 05:48:58;;;;;;;11.13;9.23;;;;;;;;;;4971308;28;20186;-64
2021/10/28 05:51:28;;;;;;;9.97;8.87;;;;;;;;;;4968614;28;20542;-64
2021/10/28 05:53:54;;;;;;;10.93;8.77;;;;;;;;;;4987223;28;20219;-64
2021/10/28 05:56:20;;;;;;;10.90;9.13;;;;;;;;;;4990353;28;20290;-63
2021/10/28 05:58:47;;;;;;;11.57;8.80;;;;;;;;;;4987788;28;20171;-63
2021/10/28 06:01:13;;;;;;;10.63;8.70;;;;;;;;;;4986349;28;20250;-63
2021/10/28 06:03:39;;;;;;;10.20;9.07;;;;;;;;;;4985266;28;20554;-63
2021/10/28 06:06:05;;;;;;;10.97;9.20;;;;;;;;;;4953150;28;20558;-63
2021/10/28 06:08:34;;;;;;;11.80;9.37;;;;;;;;;;4985931;28;20592;-63
2021/10/28 06:11:00;;;;;;;12.20;9.07;;;;;;;;;;4972227;28;20669;-63
2021/10/28 06:13:28;;;;;;;12.17;9.67;;;;;;;;;;4986869;28;20306;-63
2021/10/28 06:15:54;;;;;;;11.57;9.70;;;;;;;;;;4988493;28;20638;-62
2021/10/28 06:20:48;;;;;;;12.63;10.43;;;;;;;;;;4988961;28;20210;-62
2021/10/28 06:23:14;;;;;;;11.00;9.40;;;;;;;;;;4971060;28;20225;-62
2021/10/28 06:25:41;;;;;;;10.90;9.40;;;;;;;;;;4971801;28;20228;-62
2021/10/28 06:28:07;;;;;;;12.57;10.07;;;;;;;;;;4959110;28;20497;-63
2021/10/28 06:30:33;;;;;;;12.83;10.20;;;;;;;;;;4977186;28;20180;-63
2021/10/28 06:33:11;;;;;;;13.27;10.77;;;;;;;;;;4980672;28;20183;-63
2021/10/28 06:35:38;;;;;;;11.47;9.97;;;;;;;;;;4987888;28;20560;-63
2021/10/28 06:38:05;;;;;;;14.60;10.67;;;;;;;;;;4972365;28;20178;-63
2021/10/28 06:40:31;;;;;;;11.60;10.20;;;;;;;;;;4987932;28;20249;-63
2021/10/28 06:42:57;;;;;;;13.00;11.27;;;;;;;;;;4971080;28;20262;-63
2021/10/28 06:45:23;;;;;;;14.03;10.70;;;;;;;;;;4974620;28;20187;-63
2021/10/28 06:47:49;;;;;;;11.63;10.37;;;;;;;;;;4952415;28;20172;-63
2021/10/28 06:50:19;;;;;;;13.13;11.27;;;;;;;;;;4982916;28;20235;-63
2021/10/28 06:52:52;;;;;;;15.77;11.90;;;;;;;;;;4971049;28;20665;-63
2021/10/28 07:03:30;;;;;;;13.00;10.63;;;;;;;;;;4989030;28;20201;-63
2021/10/28 07:06:09;;;;;;;11.73;10.40;;;;;;;;;;4970868;28;20195;-63
2021/10/28 07:08:38;;;;;;;14.20;10.17;;;;;;;;;;4971698;28;20178;-63
2021/10/28 07:11:09;;;;;;;11.80;10.33;;;;;;;;;;4964767;28;20221;-63
2021/10/28 07:13:37;;;;;;;16.27;12.07;;;;;;;;;;4988962;28;20260;-63
2021/10/28 07:16:20;;;;;;;13.67;11.00;;;;;;;;;;4958669;28;20191;-63
2021/10/28 07:19:14;;;;;;;13.13;11.20;;;;;;;;;;4988198;28;20175;-63
2021/10/28 07:21:57;;;;;;;14.77;11.27;;;;;;;;;;4987370;28;20769;-63
2021/10/28 07:30:30;;;;;;;13.77;10.87;;;;;;;;;;4988992;28;20273;-63
2021/10/28 07:55:20;;;;;;;15.80;12.00;;;;;;;;;;4982663;28;20206;-63
2021/10/28 07:58:02;;;;;;;14.00;10.90;;;;;;;;;;4988399;28;20704;-63
2021/10/28 08:19:26;;;;;;;13.67;11.30;;;;;;;;;;4965269;28;20194;-63
2021/10/28 08:21:57;;;;;;;15.93;11.23;;;;;;;;;;4972445;28;20219;-63
2021/10/28 08:29:35;;;;;;;14.97;11.53;;;;;;;;;;4991355;28;20294;-63
2021/10/28 08:32:03;;;;;;;13.17;10.50;;;;;;;;;;4973897;28;20717;-63
2021/10/28 08:34:31;;;;;;;13.23;11.33;;;;;;;;;;4984465;28;20180;-63
2021/10/28 08:37:06;;;;;;;12.70;10.73;;;;;;;;;;4985931;28;20223;-63
2021/10/28 08:39:33;;;;;;;15.87;11.13;;;;;;;;;;4978831;28;20171;-63
2021/10/28 08:42:02;;;;;;;16.63;11.50;;;;;;;;;;4973913;28;20187;-63
2021/10/28 08:44:32;;;;;;;13.37;11.03;;;;;;;;;;4970877;28;20570;-63
2021/10/28 08:46:59;;;;;;;14.37;10.93;;;;;;;;;;4973285;28;20218;-63
2021/10/28 08:49:37;;;;;;;13.97;11.03;;;;;;;;;;4973443;28;20187;-63
2021/10/28 08:55:38;;;;;;;15.43;10.60;;;;;;;;;;4949106;28;20092;-63
2021/10/28 09:25:34;;;;;;;11.33;9.40;;;;;;;;;;4988810;28;20609;-63
2021/10/28 09:28:06;;;;;;;11.43;9.37;;;;;;;;;;4990483;28;20163;-62
2021/10/28 09:30:57;;;;;;;10.40;9.30;;;;;;;;;;4990308;28;20658;-63
2021/10/28 09:33:40;;;;;;;9.83;8.93;;;;;;;;;;4990180;28;20159;-63
2021/10/28 09:43:35;;;;;;;14.13;9.67;;;;;;;;;;4974616;28;20178;-63
2021/10/28 09:47:34;;;;;;;10.73;8.93;;;;;;;;;;4990495;28;20229;-63
2021/10/28 09:50:17;;;;;;;10.10;8.07;;;;;;;;;;4969555;28;20580;-63
2021/10/28 09:53:04;;;;;;;9.87;8.07;;;;;;;;;;4972609;28;20163;-63
2021/10/28 09:58:25;;;;;;;10.30;8.03;;;;;;;;;;4989370;28;20175;-63
2021/10/28 10:00:51;;;;;;;9.75;8.48;;;;;;;;;;4967318;28;20447;-63
2021/10/28 10:03:24;;;;;;;8.87;7.87;;;;;;;;;;4968867;28;20191;-63
2021/10/28 10:06:02;;;;;;;8.47;7.67;;;;;;;;;;4967820;28;20171;-57
2021/10/28 10:08:28;;;;;;;11.30;9.00;;;;;;;;;;4988576;28;20834;-57
2021/10/28 10:10:55;;;;;;;9.33;8.23;;;;;;;;;;4970907;28;20179;-62
2021/10/28 10:13:25;;;;;;;9.63;8.60;;;;;;;;;;4988353;28;20190;-62
2021/10/28 10:16:06;;;;;;;9.80;8.03;;;;;;;;;;4953984;28;20188;-63
2021/10/28 10:18:34;;;;;;;11.00;8.77;;;;;;;;;;4968681;28;20187;-62
2021/10/28 10:21:15;;;;;;;8.67;7.77;;;;;;;;;;4952846;28;20266;-62
2021/10/28 10:25:04;;;;;;;10.03;8.00;;;;;;;;;;4953412;28;20203;-62
2021/10/28 11:26:55;;;;;;;8.43;6.07;;;;;;;;;;4993099;28;20245;-64
2021/10/28 12:15:51;;;;;;;4.77;3.10;;;;;;;;;;4992030;28;20318;-63
2021/10/28 12:45:40;;;;;;;4.40;4.00;;;;;;;;;;4991474;28;20214;-59
2021/10/28 13:35:39;;;;;;;8.87;5.20;;;;;;;;;;4987567;28;20276;-61
2021/10/28 13:51:48;;;;;;;7.27;4.37;;;;;;;;;;4989269;28;20262;-61
2021/10/28 14:23:21;;;;;;;5.37;4.97;;;;;;;;;;4985388;28;20202;-61
2021/10/28 14:31:45;;;;;;;5.03;4.53;;;;;;;;;;4988846;28;20214;-61
2021/10/28 15:01:45;;;;;;;6.97;4.37;;;;;;;;;;4985889;28;20310;-59
2021/10/28 15:29:09;;;;;;;4.80;4.23;;;;;;;;;;4986072;28;20189;-60
2021/10/28 15:37:13;;;;;;;7.80;4.77;;;;;;;;;;4984631;28;20203;-60
2021/10/28 15:39:57;;;;;;;5.77;4.47;;;;;;;;;;4985024;28;20183;-60
2021/10/28 16:23:19;;;;;;;9.10;7.53;;;;;;;;;;4989965;28;20214;-62
2021/10/28 16:25:46;;;;;;;8.40;7.50;;;;;;;;;;4968368;28;20267;-62
2021/10/28 16:28:16;;;;;;;12.70;8.20;;;;;;;;;;4992402;28;20646;-62
2021/10/28 16:30:42;;;;;;;9.07;8.17;;;;;;;;;;4972292;28;20212;-62
2021/10/28 16:33:08;;;;;;;9.97;8.63;;;;;;;;;;4989036;28;20193;-62
2021/10/28 16:35:38;;;;;;;10.13;8.27;;;;;;;;;;4981185;28;20186;-61
2021/10/28 16:38:05;;;;;;;9.60;8.70;;;;;;;;;;4972365;28;20607;-62
2021/10/28 16:40:31;;;;;;;9.43;8.43;;;;;;;;;;4970047;28;20189;-61
2021/10/28 16:42:57;;;;;;;12.17;8.97;;;;;;;;;;4990172;28;20199;-62
2021/10/28 16:45:26;;;;;;;9.47;8.53;;;;;;;;;;4967996;28;20381;-62
2021/10/28 16:47:52;;;;;;;10.07;9.07;;;;;;;;;;4989536;28;20191;-63
2021/10/28 16:50:19;;;;;;;11.27;9.87;;;;;;;;;;4970213;28;20211;-66
2021/10/28 16:52:45;;;;;;;9.43;8.50;;;;;;;;;;4972865;28;20186;-65
2021/10/28 16:55:14;;;;;;;11.47;9.87;;;;;;;;;;4971751;28;20237;-66
2021/10/28 16:57:42;;;;;;;12.00;8.87;;;;;;;;;;4990761;28;20179;-65
2021/10/28 17:00:08;;;;;;;12.23;9.13;;;;;;;;;;4990305;28;20194;-65
2021/10/28 17:02:34;;;;;;;14.60;9.90;;;;;;;;;;4972567;28;20222;-64
2021/10/28 17:05:01;;;;;;;11.73;9.20;;;;;;;;;;4979845;28;20616;-64
2021/10/28 17:07:27;;;;;;;11.25;10.20;;;;;;;;;;4987762;28;20461;-65
2021/10/28 17:09:53;;;;;;;11.33;9.77;;;;;;;;;;4972017;28;20212;-65
2021/10/28 17:12:23;;;;;;;10.33;9.17;;;;;;;;;;4987974;28;20174;-63
2021/10/28 17:14:49;;;;;;;10.67;9.53;;;;;;;;;;4966679;28;20639;-64
2021/10/28 17:17:16;;;;;;;10.50;9.50;;;;;;;;;;4991437;28;20706;-65
2021/10/28 17:19:45;;;;;;;16.13;10.93;;;;;;;;;;4970188;28;20175;-64
2021/10/28 17:22:11;;;;;;;13.77;9.67;;;;;;;;;;4971092;28;20187;-64
2021/10/28 17:24:44;;;;;;;11.77;10.57;;;;;;;;;;4986690;28;20699;-64
2021/10/28 17:27:16;;;;;;;11.17;9.93;;;;;;;;;;4990329;28;20168;-64
2021/10/28 17:29:43;;;;;;;13.00;10.40;;;;;;;;;;4989982;28;20179;-64
2021/10/28 17:32:12;;;;;;;11.60;10.40;;;;;;;;;;4987309;28;20190;-63
2021/10/28 17:34:39;;;;;;;11.70;10.40;;;;;;;;;;4989217;28;20199;-63
2021/10/28 17:37:11;;;;;;;13.47;11.63;;;;;;;;;;4970715;28;20210;-64
2021/10/28 17:39:37;;;;;;;14.47;10.67;;;;;;;;;;4989869;28;20191;-64
2021/10/28 17:42:03;;;;;;;13.63;10.87;;;;;;;;;;4955593;28;20184;-64
2021/10/28 17:45:13;;;;;;;12.63;11.27;;;;;;;;;;4969104;28;20657;-64
2021/10/28 17:47:23;;;;;;;11.27;10.07;;;;;;;;;;4976490;28;20219;-63
2021/10/28 17:49:50;;;;;;;12.33;11.03;;;;;;;;;;4979321;28;20547;-63
2021/10/28 17:52:17;;;;;;;12.70;11.37;;;;;;;;;;4981829;28;20519;-64
2021/10/28 17:54:43;;;;;;;13.57;12.13;;;;;;;;;;4970202;28;20184;-63
2021/10/28 17:57:10;;;;;;;12.07;10.63;;;;;;;;;;4987569;28;20185;-63
2021/10/28 17:59:36;;;;;;;14.30;11.30;;;;;;;;;;4981875;28;20686;-64
2021/10/28 18:02:03;;;;;;;16.43;12.27;;;;;;;;;;4970798;28;20767;-63
2021/10/28 18:04:29;;;;;;;12.20;10.77;;;;;;;;;;4971685;28;20214;-63
2021/10/28 18:06:56;;;;;;;13.10;11.80;;;;;;;;;;4970660;28;20188;-63
2021/10/28 18:09:23;;;;;;;12.70;11.40;;;;;;;;;;4982693;28;20188;-63
2021/10/28 18:11:53;;;;;;;15.40;12.10;;;;;;;;;;4989358;28;20223;-63
2021/10/28 18:14:21;;;;;;;13.80;12.37;;;;;;;;;;4969142;28;20698;-63
2021/10/28 18:16:48;;;;;;;13.80;12.40;;;;;;;;;;4973280;28;20192;-63
2021/10/28 18:19:14;;;;;;;13.07;10.73;;;;;;;;;;4984860;28;20188;-64
2021/10/28 18:21:47;;;;;;;14.80;12.50;;;;;;;;;;4987234;28;20694;-63
2021/10/28 18:24:14;;;;;;;12.33;11.03;;;;;;;;;;4972875;28;20211;-63
2021/10/28 18:26:43;;;;;;;13.33;11.93;;;;;;;;;;4969394;28;20227;-63
2021/10/28 18:29:10;;;;;;;13.80;12.30;;;;;;;;;;4979693;28;20188;-63
2021/10/28 18:31:41;;;;;;;14.97;12.80;;;;;;;;;;4971943;28;20203;-63
2021/10/28 18:34:10;;;;;;;15.50;11.80;;;;;;;;;;4967430;28;20190;-63
2021/10/28 18:36:39;;;;;;;16.53;12.83;;;;;;;;;;4984091;28;20210;-63
2021/10/28 18:39:08;;;;;;;14.30;12.30;;;;;;;;;;4968449;28;20180;-63
2021/10/28 18:41:35;;;;;;;15.70;13.40;;;;;;;;;;4964115;28;20270;-63
2021/10/28 18:44:01;;;;;;;13.87;11.47;;;;;;;;;;4992715;28;20585;-63
2021/10/28 18:46:28;;;;;;;13.50;11.47;;;;;;;;;;4971039;28;20686;-63
2021/10/28 18:48:58;;;;;;;14.23;12.00;;;;;;;;;;4972702;28;20274;-65
2021/10/28 18:51:25;;;;;;;15.43;12.73;;;;;;;;;;4985731;28;20183;-64
2021/10/28 18:53:52;;;;;;;13.47;11.60;;;;;;;;;;4979778;28;20647;-64
2021/10/28 18:56:21;;;;;;;13.53;12.10;;;;;;;;;;4991274;28;20182;-63
2021/10/28 18:58:47;;;;;;;14.03;12.53;;;;;;;;;;4989897;28;20234;-63
2021/10/28 19:01:19;;;;;;;14.83;13.23;;;;;;;;;;4989198;28;20743;-63
2021/10/28 19:03:45;;;;;;;13.87;12.37;;;;;;;;;;4973743;28;20199;-64
2021/10/28 19:06:12;;;;;;;15.97;11.93;;;;;;;;;;4971442;28;20714;-64
2021/10/28 19:08:43;;;;;;;14.60;13.03;;;;;;;;;;4975071;28;20188;-63
2021/10/28 19:11:10;;;;;;;15.27;12.37;;;;;;;;;;4986827;28;20180;-63
2021/10/28 19:13:37;;;;;;;14.97;12.37;;;;;;;;;;4988110;28;20226;-63
2021/10/28 19:16:05;;;;;;;14.53;12.30;;;;;;;;;;4994310;28;20179;-63
2021/10/28 19:18:34;;;;;;;16.00;13.63;;;;;;;;;;4982652;28;20197;-64
2021/10/28 19:21:03;;;;;;;14.50;12.63;;;;;;;;;;4998671;28;20210;-63
2021/10/28 19:23:29;;;;;;;17.97;12.63;;;;;;;;;;4985962;28;20198;-63
2021/10/28 19:25:55;;;;;;;16.40;12.97;;;;;;;;;;4969305;28;20235;-63
2021/10/28 19:28:25;;;;;;;14.17;12.70;;;;;;;;;;4990663;28;20170;-62
2021/10/28 19:30:55;;;;;;;17.40;13.50;;;;;;;;;;4989368;28;20194;-63
2021/10/28 19:33:30;;;;;;;14.23;12.17;;;;;;;;;;4988556;28;20185;-62
2021/10/28 19:36:02;;;;;;;17.37;13.50;;;;;;;;;;4971141;28;20191;-63
2021/10/28 19:46:19;;;;;;;13.90;12.50;;;;;;;;;;4992317;28;20183;-63
2021/10/28 19:48:46;;;;;;;16.87;13.37;;;;;;;;;;4991132;28;20673;-63
2021/10/28 19:51:20;;;;;;;15.77;13.40;;;;;;;;;;4973782;28;20258;-63
2021/10/28 19:53:47;;;;;;;15.77;14.17;;;;;;;;;;4972999;28;20210;-63
2021/10/28 19:56:15;;;;;;;15.20;12.93;;;;;;;;;;4968951;28;20183;-63
2021/10/28 19:58:50;;;;;;;16.37;12.57;;;;;;;;;;4974001;28;20179;-63
2021/10/28 20:04:25;;;;;;;16.10;13.50;;;;;;;;;;5000894;28;20784;-63
2021/10/28 20:07:05;;;;;;;16.07;12.83;;;;;;;;;;4971352;28;20176;-63
2021/10/28 20:20:46;;;;;;;13.73;11.87;;;;;;;;;;4989226;28;20574;-63
2021/10/28 20:23:12;;;;;;;14.87;12.17;;;;;;;;;;4987213;28;20658;-63
2021/10/28 20:25:38;;;;;;;15.27;11.67;;;;;;;;;;4991791;28;20657;-63
2021/10/28 20:28:07;;;;;;;13.40;11.90;;;;;;;;;;4974087;28;20176;-63
2021/10/28 20:30:42;;;;;;;15.23;13.20;;;;;;;;;;4974575;28;20233;-63
2021/10/28 20:33:10;;;;;;;13.60;12.20;;;;;;;;;;4988404;28;20184;-63
2021/10/28 20:38:21;;;;;;;14.37;12.83;;;;;;;;;;4992216;28;20188;-63
2021/10/28 20:40:47;;;;;;;14.80;13.17;;;;;;;;;;4988949;28;20184;-64
2021/10/28 20:43:14;;;;;;;14.03;12.53;;;;;;;;;;4989306;28;20634;-64
2021/10/28 20:45:43;;;;;;;12.77;11.40;;;;;;;;;;4989452;28;20691;-63
2021/10/28 20:48:09;;;;;;;14.70;13.13;;;;;;;;;;4995176;28;20167;-63
2021/10/28 20:50:36;;;;;;;15.03;12.37;;;;;;;;;;4985881;28;20183;-63
2021/10/28 20:53:05;;;;;;;14.30;12.00;;;;;;;;;;4988668;28;20671;-63
2021/10/28 20:55:35;;;;;;;15.00;12.47;;;;;;;;;;4987026;28;20187;-63
2021/10/28 20:58:04;;;;;;;14.03;12.53;;;;;;;;;;4972869;28;20274;-63
2021/10/28 21:00:32;;;;;;;14.20;12.47;;;;;;;;;;4968414;28;20706;-64
2021/10/28 21:02:59;;;;;;;13.93;12.13;;;;;;;;;;4952353;28;20671;-64
2021/10/28 21:05:34;;;;;;;14.40;12.87;;;;;;;;;;4975376;28;20175;-64
2021/10/28 21:08:00;;;;;;;15.33;13.10;;;;;;;;;;4964684;28;20649;-64
2021/10/28 21:10:28;;;;;;;14.03;12.53;;;;;;;;;;4962706;28;20191;-63
2021/10/28 21:12:57;;;;;;;14.67;13.03;;;;;;;;;;4965722;28;20195;-63
2021/10/28 21:15:27;;;;;;;14.00;12.50;;;;;;;;;;4955509;28;20176;-63
2021/10/28 21:17:54;;;;;;;13.47;12.07;;;;;;;;;;4988906;28;20181;-63
2021/10/28 21:20:23;;;;;;;15.77;12.83;;;;;;;;;;4971567;28;20542;-63
2021/10/28 21:22:56;;;;;;;14.98;12.68;;;;;;;;;;4966965;28;20430;-63
2021/10/28 21:25:26;;;;;;;13.47;12.07;;;;;;;;;;4955243;28;20713;-64
2021/10/28 21:27:52;;;;;;;13.03;11.73;;;;;;;;;;4952349;28;20726;-63
2021/10/28 21:30:18;;;;;;;14.40;12.33;;;;;;;;;;4950558;28;20188;-63
2021/10/28 21:32:45;;;;;;;15.00;12.40;;;;;;;;;;4954982;28;20187;-64
2021/10/28 21:35:12;;;;;;;14.37;12.87;;;;;;;;;;4976855;28;20188;-63
2021/10/28 21:37:45;;;;;;;14.43;12.50;;;;;;;;;;4982686;28;20199;-64
2021/10/28 21:40:16;;;;;;;14.87;12.93;;;;;;;;;;4957632;28;20200;-63
2021/10/28 21:42:42;;;;;;;15.03;12.63;;;;;;;;;;4954424;28;20190;-64
2021/10/28 21:45:11;;;;;;;14.37;12.30;;;;;;;;;;4954324;28;20204;-64
2021/10/28 21:47:37;;;;;;;16.10;12.90;;;;;;;;;;4956632;28;20486;-63
2021/10/28 21:50:09;;;;;;;14.90;12.27;;;;;;;;;;4948680;29;20216;-63
2021/10/28 21:52:41;;;;;;;13.87;11.47;;;;;;;;;;4955623;28;20183;-64
2021/10/28 22:06:21;;;;;;;16.63;12.73;;;;;;;;;;4989146;28;20218;-64
2021/10/28 22:25:17;;;;;;;14.27;11.60;;;;;;;;;;4989325;28;20237;-63
2021/10/28 22:27:44;;;;;;;14.90;12.03;;;;;;;;;;4988525;28;20218;-63
2021/10/28 22:30:11;;;;;;;13.80;11.67;;;;;;;;;;4988220;28;20698;-65
2021/10/28 22:32:39;;;;;;;15.20;11.50;;;;;;;;;;4987597;28;20649;-62
2021/10/28 22:35:09;;;;;;;15.07;11.87;;;;;;;;;;4987629;28;20197;-63
2021/10/28 22:37:59;;;;;;;15.03;12.80;;;;;;;;;;4989135;28;20185;-63
2021/10/28 22:40:32;;;;;;;13.07;10.93;;;;;;;;;;4968305;28;20185;-63
2021/10/28 22:43:04;;;;;;;15.63;11.80;;;;;;;;;;4989003;28;20626;-63
2021/10/28 22:45:31;;;;;;;14.43;11.87;;;;;;;;;;4988282;28;20182;-62
2021/10/28 22:48:06;;;;;;;16.00;12.53;;;;;;;;;;4988928;28;20171;-63
2021/10/28 22:50:32;;;;;;;14.67;12.17;;;;;;;;;;4986566;28;20178;-62
2021/10/28 22:53:02;;;;;;;16.70;13.00;;;;;;;;;;4971446;28;20180;-62
2021/10/28 22:55:33;;;;;;;14.30;11.30;;;;;;;;;;4971360;28;20175;-62
2021/10/28 22:58:09;;;;;;;14.73;11.53;;;;;;;;;;4987593;28;20186;-63
2021/10/28 23:06:35;;;;;;;13.10;11.57;;;;;;;;;;4992130;28;20237;-62
2021/10/28 23:22:11;;;;;;;13.73;12.10;;;;;;;;;;4992294;28;20325;-62
2021/10/28 23:24:37;;;;;;;15.50;11.77;;;;;;;;;;4992403;28;20297;-62
2021/10/28 23:27:03;;;;;;;12.83;10.47;;;;;;;;;;4992023;28;20179;-63
2021/10/28 23:29:35;;;;;;;14.10;11.60;;;;;;;;;;4991758;28;20465;-63
2021/10/28 23:32:04;;;;;;;12.43;9.93;;;;;;;;;;4976263;28;20626;-62
2021/10/28 23:34:31;;;;;;;13.53;10.53;;;;;;;;;;4972238;28;20617;-62
2021/10/28 23:36:57;;;;;;;12.90;10.43;;;;;;;;;;4979036;28;20190;-62
2021/10/28 23:39:29;;;;;;;13.63;11.17;;;;;;;;;;4990343;28;20217;-62
2021/10/28 23:41:57;;;;;;;13.57;10.60;;;;;;;;;;4974390;28;20211;-62
2021/10/28 23:44:23;;;;;;;13.20;11.13;;;;;;;;;;4985566;28;20211;-62
2021/10/28 23:46:50;;;;;;;13.33;10.60;;;;;;;;;;4988164;28;20171;-62
2021/10/28 23:49:19;;;;;;;12.77;10.23;;;;;;;;;;4992289;28;20179;-62
2021/10/28 23:51:49;;;;;;;12.93;10.70;;;;;;;;;;4994627;28;20605;-62
2021/10/28 23:54:15;;;;;;;11.37;9.47;;;;;;;;;;4984796;28;20247;-63
2021/10/28 23:56:44;;;;;;;11.67;9.20;;;;;;;;;;4991547;28;20261;-63
2021/10/28 23:59:11;;;;;;;10.87;9.43;;;;;;;;;;4970871;28;20194;-63
